Time;durP1;ratioP1;P1;durP2;ratioP2;P2;SDS_P1;SDS_P2;PMS_P1;PMS_P2;Temp;Humidity;BMP_temperature;BMP_pressure;BME280_temperature;BME280_humidity;BME280_pressure;Samples;Min_cycle;Max_cycle;Signal;HPM_P1;HPM_P2
2022/01/24 00:00:15;;;;;;;5.43;2.33;;;;;;;6.76;100.00;103169.47;5062972;28;20150;-74
2022/01/24 00:02:44;;;;;;;8.27;3.22;;;;;;;6.76;100.00;103174.97;5066734;28;20048;-73
2022/01/24 00:05:12;;;;;;;13.65;4.65;;;;;;;6.81;100.00;103165.75;5067431;28;20834;-73
2022/01/24 00:07:39;;;;;;;11.63;3.88;;;;;;;6.82;100.00;103157.19;5068785;28;20569;-72
2022/01/24 00:10:11;;;;;;;6.97;2.75;;;;;;;6.80;100.00;103166.88;5068918;28;20070;-72
2022/01/24 00:15:47;;;;;;;8.57;3.33;;;;;;;6.78;100.00;103160.88;5064705;28;20848;-74
2022/01/24 00:18:13;;;;;;;11.57;4.10;;;;;;;6.72;100.00;103151.13;5062364;28;20045;-74
2022/01/24 00:28:55;;;;;;;12.27;4.18;;;;;;;6.70;100.00;103165.19;5079314;28;20076;-73
2022/01/24 00:31:22;;;;;;;13.43;4.97;;;;;;;6.68;100.00;103158.38;5055962;28;20056;-73
2022/01/24 00:33:48;;;;;;;11.52;4.78;;;;;;;6.68;100.00;103164.69;5071279;28;20052;-73
2022/01/24 00:36:15;;;;;;;9.80;4.47;;;;;;;6.67;100.00;103154.81;5071625;28;20044;-75
2022/01/24 00:38:41;;;;;;;11.80;4.63;;;;;;;6.71;100.00;103160.47;5074229;28;20060;-74
2022/01/24 00:41:12;;;;;;;10.70;4.55;;;;;;;6.71;100.00;103155.81;5069975;28;20135;-74
2022/01/24 00:44:35;;;;;;;12.02;3.97;;;;;;;6.67;100.00;103154.00;5066205;28;20419;-73
2022/01/24 00:46:36;;;;;;;9.95;4.25;;;;;;;6.67;100.00;103160.31;5054018;28;20053;-73
2022/01/24 00:57:03;;;;;;;11.18;4.50;;;;;;;6.72;100.00;103162.13;5066730;28;20127;-72
2022/01/24 00:59:30;;;;;;;9.38;3.88;;;;;;;6.68;100.00;103150.94;5070141;28;20051;-74
2022/01/24 01:01:56;;;;;;;10.13;3.50;;;;;;;6.70;100.00;103156.94;5080983;28;20160;-74
2022/01/24 01:04:30;;;;;;;11.50;4.05;;;;;;;6.71;100.00;103152.22;5071670;28;20489;-72
2022/01/24 01:07:03;;;;;;;10.55;4.65;;;;;;;6.72;100.00;103149.16;5064119;28;20139;-75
2022/01/24 01:20:40;;;;;;;13.25;4.60;;;;;;;6.69;100.00;103136.06;5064183;28;20139;-73
2022/01/24 01:23:07;;;;;;;9.20;3.90;;;;;;;6.69;100.00;103138.00;5067082;28;20047;-72
2022/01/24 01:25:36;;;;;;;9.48;4.20;;;;;;;6.72;100.00;103146.41;5065805;28;20147;-74
2022/01/24 01:28:03;;;;;;;9.77;3.78;;;;;;;6.74;100.00;103143.34;5071831;28;20052;-73
2022/01/24 01:30:38;;;;;;;8.68;4.10;;;;;;;6.77;100.00;103151.00;5067029;28;20049;-74
2022/01/24 01:33:16;;;;;;;8.82;3.92;;;;;;;6.79;100.00;103148.75;5062456;28;20657;-72
2022/01/24 01:35:57;;;;;;;12.75;4.63;;;;;;;6.81;100.00;103154.72;5064200;28;20492;-77
2022/01/24 01:57:13;;;;;;;8.10;3.40;;;;;;;6.84;100.00;103132.09;5069810;28;20098;-72
2022/01/24 01:59:39;;;;;;;8.27;4.30;;;;;;;6.84;100.00;103123.84;5067206;28;20087;-74
2022/01/24 02:02:06;;;;;;;12.38;4.00;;;;;;;6.83;100.00;103130.47;5061050;28;20159;-74
2022/01/24 02:04:32;;;;;;;10.68;3.95;;;;;;;6.82;100.00;103126.09;5066885;28;20052;-73
2022/01/24 02:07:00;;;;;;;8.48;3.50;;;;;;;6.83;100.00;103134.06;5066561;28;20055;-73
2022/01/24 02:09:31;;;;;;;10.82;4.05;;;;;;;6.82;100.00;103126.09;5061545;28;20517;-74
2022/01/24 02:11:58;;;;;;;10.57;4.20;;;;;;;6.84;100.00;103132.09;5065676;28;20512;-73
2022/01/24 02:14:32;;;;;;;9.43;3.90;;;;;;;6.80;100.00;103120.09;5071859;28;20127;-72
2022/01/24 02:17:06;;;;;;;10.65;3.90;;;;;;;6.82;100.00;103117.84;5076811;28;20053;-73
2022/01/24 02:19:50;;;;;;;8.82;3.72;;;;;;;6.81;100.00;103116.22;5073471;28;20048;-74
2022/01/24 02:24:56;;;;;;;9.73;3.83;;;;;;;6.78;100.00;103117.66;5066066;28;20140;-72
2022/01/24 02:27:25;;;;;;;12.80;4.57;;;;;;;6.76;100.00;103108.91;5067728;28;20040;-75
2022/01/24 02:30:10;;;;;;;10.70;3.83;;;;;;;6.76;100.00;103116.34;5068466;28;20148;-72
2022/01/24 02:32:39;;;;;;;11.82;4.55;;;;;;;6.73;100.00;103105.97;5083763;28;20119;-73
2022/01/24 02:35:07;;;;;;;11.80;4.32;;;;;;;6.70;100.00;103099.16;5072631;28;20492;-74
2022/01/24 02:37:34;;;;;;;10.07;3.78;;;;;;;6.64;100.00;103111.41;5073811;28;20049;-73
2022/01/24 02:40:09;;;;;;;7.38;3.30;;;;;;;6.64;100.00;103105.09;5068269;28;20048;-73
2022/01/24 02:53:22;;;;;;;8.82;3.45;;;;;;;6.70;100.00;103088.16;5072527;28;20040;-73
2022/01/24 02:55:49;;;;;;;9.45;3.42;;;;;;;6.72;100.00;103090.59;5069845;28;20092;-72
2022/01/24 02:58:16;;;;;;;8.13;3.20;;;;;;;6.73;100.00;103092.22;5068781;28;20507;-74
2022/01/24 03:00:45;;;;;;;8.20;3.20;;;;;;;6.73;100.00;103081.19;5069857;28;20045;-72
2022/01/24 03:03:13;;;;;;;5.70;3.20;;;;;;;6.71;100.00;103077.94;5070654;28;20049;-73
2022/01/24 03:05:39;;;;;;;6.68;2.85;;;;;;;6.73;100.00;103081.19;5069697;28;20044;-73
2022/01/24 03:08:06;;;;;;;6.72;3.13;;;;;;;6.69;100.00;103088.47;5070345;28;20080;-72
2022/01/24 03:10:45;;;;;;;7.10;3.08;;;;;;;6.69;100.00;103082.97;5069479;28;20095;-73
2022/01/24 03:15:49;;;;;;;5.78;3.15;;;;;;;6.70;100.00;103077.16;5065856;28;20444;-73
2022/01/24 03:18:17;;;;;;;6.50;3.42;;;;;;;6.74;100.00;103086.41;5057570;28;20144;-72
2022/01/24 03:20:44;;;;;;;7.03;3.22;;;;;;;6.74;100.00;103083.63;5068663;28;20146;-72
2022/01/24 03:23:14;;;;;;;5.80;2.60;;;;;;;6.77;100.00;103084.94;5069865;28;20048;-74
2022/01/24 03:25:42;;;;;;;7.63;3.40;;;;;;;6.76;100.00;103080.56;5069356;28;20055;-74
2022/01/24 03:28:09;;;;;;;7.65;4.72;;;;;;;6.77;100.00;103088.53;5068865;28;20054;-72
2022/01/24 03:30:37;;;;;;;6.50;2.85;;;;;;;6.79;100.00;103085.44;5069686;28;20049;-73
2022/01/24 03:33:04;;;;;;;6.28;3.03;;;;;;;6.80;100.00;103081.56;5068501;28;20076;-74
2022/01/24 03:35:32;;;;;;;7.03;3.30;;;;;;;6.80;100.00;103087.06;5076577;28;20078;-73
2022/01/24 03:37:58;;;;;;;7.07;2.60;;;;;;;6.80;100.00;103079.63;5069009;28;20137;-72
2022/01/24 03:40:25;;;;;;;5.97;3.17;;;;;;;6.78;100.00;103070.09;5069733;28;20055;-72
2022/01/24 03:42:51;;;;;;;8.30;2.85;;;;;;;6.78;100.00;103075.59;5068780;28;20131;-73
2022/01/24 03:45:35;;;;;;;8.02;3.17;;;;;;;6.75;100.00;103074.25;5069225;28;20512;-73
2022/01/24 03:48:08;;;;;;;9.45;3.17;;;;;;;6.76;100.00;103072.31;5069743;28;20123;-73
2022/01/24 03:50:35;;;;;;;6.05;3.13;;;;;;;6.76;100.00;103080.56;5067697;28;20040;-73
2022/01/24 03:53:04;;;;;;;5.32;2.72;;;;;;;6.65;100.00;103077.25;5069145;28;20048;-71
2022/01/24 03:55:33;;;;;;;6.20;2.90;;;;;;;6.70;100.00;103068.06;5051216;28;20485;-74
2022/01/24 03:58:00;;;;;;;5.53;3.03;;;;;;;6.68;100.00;103075.84;5060932;28;20091;-72
2022/01/24 04:00:26;;;;;;;6.70;3.20;;;;;;;6.73;100.00;103078.44;5069278;28;20080;-74
2022/01/24 04:02:53;;;;;;;5.57;3.03;;;;;;;6.72;100.00;103080.38;5068157;28;20056;-73
2022/01/24 04:05:20;;;;;;;6.97;3.42;;;;;;;6.75;100.00;103076.22;5069287;28;20466;-73
2022/01/24 04:07:46;;;;;;;6.63;3.20;;;;;;;6.75;100.00;103078.97;5067015;28;20052;-73
2022/01/24 04:10:17;;;;;;;7.47;3.25;;;;;;;6.75;100.00;103067.94;5054810;28;20064;-72
2022/01/24 04:12:44;;;;;;;8.43;3.08;;;;;;;6.78;100.00;103072.84;5069065;28;20066;-73
2022/01/24 04:18:08;;;;;;;8.73;3.28;;;;;;;6.78;100.00;103076.38;5067196;28;20051;-73
2022/01/24 04:23:20;;;;;;;5.47;2.38;;;;;;;6.76;100.00;103062.13;5059896;28;20504;-72
2022/01/24 04:25:47;;;;;;;12.30;3.20;;;;;;;6.78;100.00;103061.81;5068459;28;20055;-74
2022/01/24 04:28:14;;;;;;;6.90;3.13;;;;;;;6.77;100.00;103066.50;5068833;28;20068;-74
2022/01/24 04:30:41;;;;;;;6.13;3.08;;;;;;;6.76;100.00;103070.41;5068339;28;20150;-76
2022/01/24 04:33:07;;;;;;;7.82;3.40;;;;;;;6.77;100.00;103076.69;5067123;28;20076;-72
2022/01/24 04:35:34;;;;;;;8.07;3.10;;;;;;;6.76;100.00;103073.16;5080541;28;20424;-73
2022/01/24 04:38:01;;;;;;;9.82;3.92;;;;;;;6.78;100.00;103078.34;5066182;28;20898;-72
2022/01/24 04:40:28;;;;;;;10.10;3.90;;;;;;;6.76;100.00;103075.91;5067720;28;20400;-73
2022/01/24 04:43:17;;;;;;;7.10;2.90;;;;;;;6.78;100.00;103078.34;5068119;28;20052;-74
2022/01/24 04:51:49;;;;;;;;;;;;;;;;;;;;;
2022/01/24 04:54:36;;;;;;;;;;;;;;;;;;;;;
2022/01/24 04:56:30;;;;;;;7.07;2.80;;;;;;;6.75;100.00;103079.75;5068264;28;20059;-75
2022/01/24 04:58:56;;;;;;;9.00;3.22;;;;;;;6.74;100.00;103082.81;5068691;28;20159;-73
2022/01/24 05:01:23;;;;;;;7.78;3.40;;;;;;;6.72;100.00;103085.88;5068611;28;20128;-73
2022/01/24 05:03:49;;;;;;;8.73;3.28;;;;;;;6.73;100.00;103081.19;5066155;28;20049;-72
2022/01/24 05:06:16;;;;;;;7.60;3.28;;;;;;;6.75;100.00;103090.75;5067747;28;20062;-71
2022/01/24 05:08:43;;;;;;;9.15;3.50;;;;;;;6.73;100.00;103081.19;5067528;28;20102;-72
2022/01/24 05:11:13;;;;;;;8.75;2.85;;;;;;;6.74;100.00;103080.88;5067901;28;20080;-73
2022/01/24 05:24:22;;;;;;;10.88;3.95;;;;;;;6.72;100.00;103079.59;5067982;28;20079;-73
2022/01/24 05:26:49;;;;;;;9.48;4.18;;;;;;;6.72;100.00;103077.63;5068460;28;20053;-72
2022/01/24 05:29:15;;;;;;;10.75;4.30;;;;;;;6.71;100.00;103072.44;5068022;28;20045;-73
2022/01/24 05:31:44;;;;;;;11.68;4.75;;;;;;;6.71;100.00;103075.19;5066173;28;20064;-74
2022/01/24 05:34:11;;;;;;;8.60;3.78;;;;;;;6.69;100.00;103063.69;5070049;28;20131;-72
2022/01/24 05:36:37;;;;;;;9.65;4.53;;;;;;;6.71;100.00;103073.25;5073152;28;20054;-72
2022/01/24 05:39:04;;;;;;;10.73;4.95;;;;;;;6.63;100.00;103060.28;5067648;28;20053;-73
2022/01/24 05:41:30;;;;;;;12.55;5.22;;;;;;;6.66;100.00;103080.84;5067722;28;20057;-73
2022/01/24 05:43:57;;;;;;;10.15;4.30;;;;;;;6.66;100.00;103067.06;5067997;28;20649;-74
2022/01/24 05:46:24;;;;;;;12.48;4.65;;;;;;;6.66;100.00;103078.09;5068353;28;20058;-72
2022/01/24 05:48:52;;;;;;;6.45;3.95;;;;;;;6.65;100.00;103073.72;5067813;28;20424;-74
2022/01/24 05:51:20;;;;;;;8.32;4.18;;;;;;;6.62;100.00;103075.13;5067336;28;20111;-73
2022/01/24 05:53:47;;;;;;;10.35;4.72;;;;;;;6.64;100.00;103081.16;5069449;28;20146;-74
2022/01/24 05:56:13;;;;;;;10.13;4.30;;;;;;;6.66;100.00;103081.66;5071814;28;20087;-73
2022/01/24 05:58:40;;;;;;;9.93;4.22;;;;;;;6.66;100.00;103064.31;5070361;28;20485;-71
2022/01/24 06:01:06;;;;;;;9.40;4.88;;;;;;;6.65;100.00;103062.72;5071623;28;20052;-73
2022/01/24 06:03:33;;;;;;;12.13;4.60;;;;;;;6.65;100.00;103070.97;5069356;28;20824;-73
2022/01/24 06:06:00;;;;;;;14.75;4.63;;;;;;;6.69;100.00;103074.72;5070060;28;20402;-73
2022/01/24 06:08:26;;;;;;;5.57;3.10;;;;;;;6.70;100.00;103082.66;5070483;28;20052;-74
2022/01/24 06:10:53;;;;;;;6.97;3.22;;;;;;;6.71;100.00;103076.00;5070948;28;20056;-73
2022/01/24 06:13:20;;;;;;;8.88;3.53;;;;;;;6.71;100.00;103088.94;5069817;28;20044;-72
2022/01/24 06:15:46;;;;;;;9.73;3.67;;;;;;;6.72;100.00;103087.84;5081810;28;20158;-73
2022/01/24 06:18:13;;;;;;;6.47;3.30;;;;;;;6.70;100.00;103077.16;5072088;28;20058;-73
2022/01/24 06:20:41;;;;;;;16.95;5.70;;;;;;;6.70;100.00;103084.56;5072043;28;20052;-73
2022/01/24 06:23:12;;;;;;;10.10;4.00;;;;;;;6.68;100.00;103070.34;5070333;28;20524;-73
2022/01/24 06:25:38;;;;;;;12.73;4.75;;;;;;;6.68;100.00;103073.09;5070176;28;20059;-72
2022/01/24 06:28:08;;;;;;;16.85;5.30;;;;;;;6.72;100.00;103080.38;5070706;28;20102;-74
2022/01/24 06:30:34;;;;;;;14.50;5.15;;;;;;;6.73;100.00;103081.19;5077060;28;20070;-73
2022/01/24 06:33:01;;;;;;;12.88;4.20;;;;;;;6.69;100.00;103081.03;5069549;28;20159;-71
2022/01/24 06:35:27;;;;;;;11.63;4.70;;;;;;;6.70;100.00;103070.81;5081126;28;20134;-73
2022/01/24 06:37:54;;;;;;;10.75;4.88;;;;;;;6.70;100.00;103068.91;5069074;28;20127;-73
2022/01/24 06:40:20;;;;;;;13.27;4.53;;;;;;;6.72;100.00;103063.06;5068577;28;20136;-73
2022/01/24 06:42:47;;;;;;;15.80;4.55;;;;;;;6.73;100.00;103070.19;5069625;28;20053;-73
2022/01/24 06:45:14;;;;;;;15.70;5.65;;;;;;;6.70;100.00;103068.91;5070077;28;20123;-73
2022/01/24 06:47:41;;;;;;;10.98;4.97;;;;;;;6.70;100.00;103073.56;5069963;28;20165;-74
2022/01/24 06:50:08;;;;;;;15.82;6.95;;;;;;;6.70;100.00;103082.66;5070142;28;20138;-72
2022/01/24 06:52:35;;;;;;;15.07;6.47;;;;;;;6.68;100.00;103081.34;5069402;28;20217;-72
2022/01/24 06:55:02;;;;;;;11.50;5.82;;;;;;;6.66;100.00;103078.91;5070210;28;20132;-74
2022/01/24 06:57:29;;;;;;;14.48;6.15;;;;;;;6.66;100.00;103081.66;5070627;28;20089;-73
2022/01/24 06:59:56;;;;;;;12.23;6.05;;;;;;;6.66;100.00;103086.34;5067376;28;20056;-74
2022/01/24 07:02:22;;;;;;;15.82;6.40;;;;;;;6.69;100.00;103085.72;5070062;28;20048;-72
2022/01/24 07:04:49;;;;;;;13.07;6.47;;;;;;;6.72;100.00;103090.59;5065655;28;20051;-74
2022/01/24 07:07:18;;;;;;;17.67;5.70;;;;;;;6.72;100.00;103096.88;5070552;28;20419;-73
2022/01/24 07:09:45;;;;;;;15.05;5.60;;;;;;;6.69;100.00;103096.72;5070479;28;20140;-73
2022/01/24 07:12:12;;;;;;;13.45;6.72;;;;;;;6.69;100.00;103100.28;5067858;28;20048;-73
2022/01/24 07:14:40;;;;;;;13.15;5.93;;;;;;;6.68;100.00;103097.84;5067947;28;20055;-73
2022/01/24 07:17:32;;;;;;;12.90;6.03;;;;;;;6.69;100.00;103102.22;5063128;28;20059;-73
2022/01/24 07:19:59;;;;;;;12.05;5.78;;;;;;;6.65;100.00;103092.97;5057411;28;20190;-72
2022/01/24 07:22:26;;;;;;;11.88;5.88;;;;;;;6.64;100.00;103105.09;5068560;28;20176;-73
2022/01/24 07:24:52;;;;;;;15.82;6.45;;;;;;;6.65;100.00;103102.03;5067981;28;20500;-73
2022/01/24 07:27:19;;;;;;;17.25;7.55;;;;;;;6.68;100.00;103109.66;5066261;28;20044;-73
2022/01/24 07:29:45;;;;;;;15.05;6.97;;;;;;;6.64;100.00;103111.41;5071948;28;20456;-74
2022/01/24 07:32:13;;;;;;;14.30;6.25;;;;;;;6.64;100.00;103116.09;5065966;28;20052;-73
2022/01/24 07:34:40;;;;;;;12.23;6.00;;;;;;;6.61;100.00;103123.03;5069483;28;20057;-71
2022/01/24 07:37:06;;;;;;;16.42;6.68;;;;;;;6.61;100.00;103122.25;5060804;28;20090;-76
2022/01/24 07:39:33;;;;;;;19.67;8.45;;;;;;;6.60;100.00;103128.84;5054079;28;20127;-73
2022/01/24 07:42:15;;;;;;;18.02;7.90;;;;;;;6.60;100.00;103123.34;5068513;28;20102;-73
2022/01/24 07:44:43;;;;;;;15.75;6.32;;;;;;;6.60;100.00;103129.69;5074277;28;20117;-73
2022/01/24 07:47:09;;;;;;;14.63;6.47;;;;;;;6.54;100.00;103121.84;5069002;28;20512;-72
2022/01/24 07:49:36;;;;;;;10.48;4.72;;;;;;;6.55;100.00;103135.28;5068090;28;20564;-73
2022/01/24 07:52:03;;;;;;;12.07;5.53;;;;;;;6.54;100.00;103130.91;5070155;28;20056;-74
2022/01/24 07:54:30;;;;;;;15.13;7.03;;;;;;;6.54;100.00;103135.59;5068286;28;20056;-73
2022/01/24 07:56:56;;;;;;;13.40;6.47;;;;;;;6.53;100.00;103129.31;5070251;28;20084;-73
2022/01/24 07:59:23;;;;;;;17.08;6.55;;;;;;;6.52;100.00;103135.13;5059011;28;20164;-75
2022/01/24 08:01:50;;;;;;;13.70;6.63;;;;;;;6.53;100.00;103133.97;5065392;28;20521;-73
2022/01/24 08:04:18;;;;;;;13.52;6.05;;;;;;;6.51;100.00;103128.00;5066629;28;20055;-71
2022/01/24 08:06:46;;;;;;;15.98;6.55;;;;;;;6.49;100.00;103131.06;5065674;28;20127;-71
2022/01/24 08:09:14;;;;;;;15.07;6.05;;;;;;;6.51;100.00;103145.28;5069993;28;20079;-71
2022/01/24 08:11:40;;;;;;;14.07;5.82;;;;;;;6.50;100.00;103138.16;5066382;28;20087;-71
2022/01/24 08:14:08;;;;;;;11.35;4.80;;;;;;;6.45;100.00;103137.50;5064234;28;20135;-72
2022/01/24 08:16:36;;;;;;;16.45;5.95;;;;;;;6.48;100.00;103142.38;5069175;28;20052;-72
2022/01/24 08:19:03;;;;;;;13.23;5.93;;;;;;;6.46;100.00;103131.66;5082740;28;20062;-72
2022/01/24 08:21:29;;;;;;;12.15;5.43;;;;;;;6.46;100.00;103134.44;5064226;28;20412;-72
2022/01/24 08:23:56;;;;;;;13.88;5.55;;;;;;;6.47;100.00;103130.53;5066002;28;20087;-72
2022/01/24 08:26:23;;;;;;;14.98;5.57;;;;;;;6.31;100.00;103117.47;5064932;28;20121;-72
2022/01/24 08:28:49;;;;;;;15.25;6.20;;;;;;;6.42;100.00;103124.34;5062997;28;20151;-72
2022/01/24 08:31:16;;;;;;;13.07;4.47;;;;;;;6.42;100.00;103129.84;5066864;28;20088;-73
2022/01/24 08:33:44;;;;;;;15.82;5.50;;;;;;;6.37;100.00;103128.03;5067185;28;20048;-72
2022/01/24 08:36:11;;;;;;;14.95;4.53;;;;;;;6.38;100.00;103124.16;5078393;28;20801;-74
2022/01/24 08:38:38;;;;;;;14.75;5.80;;;;;;;6.42;100.00;103129.84;5065689;28;20136;-72
2022/01/24 08:41:15;;;;;;;13.43;5.78;;;;;;;6.44;100.00;103122.09;5057542;28;20514;-73
2022/01/24 08:46:16;;;;;;;16.35;6.00;;;;;;;6.45;100.00;103132.78;5067810;28;20517;-72
2022/01/24 08:48:43;;;;;;;13.18;5.82;;;;;;;6.48;100.00;103134.91;5066911;28;20049;-72
2022/01/24 08:51:13;;;;;;;13.77;5.65;;;;;;;6.49;100.00;103130.22;5074050;28;20151;-73
2022/01/24 08:53:59;;;;;;;15.35;7.22;;;;;;;6.51;100.00;103130.75;5058382;28;20048;-74
2022/01/24 08:56:26;;;;;;;16.00;6.45;;;;;;;6.50;100.00;103135.41;5062238;28;20887;-72
2022/01/24 08:58:53;;;;;;;15.15;6.53;;;;;;;6.49;100.00;103144.81;5066926;28;20474;-73
2022/01/24 09:01:20;;;;;;;13.73;5.72;;;;;;;6.46;100.00;103150.94;5055839;28;20044;-73
2022/01/24 09:03:47;;;;;;;14.40;6.65;;;;;;;6.44;100.00;103141.34;5065363;28;20049;-73
2022/01/24 09:06:17;;;;;;;15.95;7.63;;;;;;;6.45;100.00;103135.53;5064507;28;20060;-73
2022/01/24 09:08:44;;;;;;;17.55;7.75;;;;;;;6.44;100.00;103133.09;5065274;28;20106;-73
2022/01/24 09:11:11;;;;;;;12.85;5.78;;;;;;;6.40;100.00;103134.84;5066605;28;20040;-73
2022/01/24 09:13:37;;;;;;;15.35;7.70;;;;;;;6.46;100.00;103136.34;5065639;28;20060;-73
2022/01/24 09:16:04;;;;;;;15.65;7.07;;;;;;;6.47;100.00;103135.22;5066879;28;20052;-73
2022/01/24 09:18:31;;;;;;;15.15;6.72;;;;;;;6.48;100.00;103131.38;5067023;28;20056;-74
2022/01/24 09:20:58;;;;;;;17.70;7.18;;;;;;;6.44;100.00;103128.41;5065992;28;20056;-72
2022/01/24 09:23:25;;;;;;;18.98;8.10;;;;;;;6.44;100.00;103133.09;5065976;28;20155;-73
2022/01/24 09:25:52;;;;;;;14.70;7.03;;;;;;;6.46;100.00;103137.19;5065687;28;20051;-75
2022/01/24 09:28:19;;;;;;;15.98;7.65;;;;;;;6.44;100.00;103139.41;5064388;28;20311;-73
2022/01/24 09:30:45;;;;;;;17.20;7.47;;;;;;;6.49;100.00;103135.72;5070123;28;20052;-74
2022/01/24 09:33:13;;;;;;;20.55;8.40;;;;;;;6.45;100.00;103131.97;5068682;28;20135;-73
2022/01/24 09:35:41;;;;;;;7.47;3.00;;;;;;;6.43;100.00;103125.97;5077372;28;20040;-73
2022/01/24 09:38:07;;;;;;;13.63;5.97;;;;;;;6.42;100.00;103127.94;5067216;28;20052;-73
2022/01/24 09:40:34;;;;;;;19.77;8.02;;;;;;;6.44;100.00;103135.84;5063820;28;20501;-75
2022/01/24 09:43:01;;;;;;;27.83;8.88;;;;;;;6.48;100.00;103134.13;5069053;28;20106;-71
2022/01/24 09:45:28;;;;;;;15.30;7.65;;;;;;;6.45;100.00;103129.22;5069406;28;20052;-74
2022/01/24 09:47:57;;;;;;;17.90;7.88;;;;;;;6.47;100.00;103132.47;5063786;28;20067;-73
2022/01/24 09:50:23;;;;;;;19.05;8.10;;;;;;;6.55;100.00;103137.25;5067697;28;20058;-73
2022/01/24 09:52:51;;;;;;;12.75;5.78;;;;;;;6.46;100.00;103136.34;5067237;28;20057;-72
2022/01/24 09:55:19;;;;;;;14.02;6.43;;;;;;;6.47;100.00;103135.22;5070781;28;20054;-73
2022/01/24 09:57:47;;;;;;;13.00;5.78;;;;;;;6.44;100.00;103135.84;5070813;28;20148;-73
2022/01/24 10:00:17;;;;;;;15.68;7.28;;;;;;;6.49;100.00;103136.56;5066200;28;20049;-76
2022/01/24 10:02:46;;;;;;;16.73;7.20;;;;;;;6.52;100.00;103140.63;5064978;28;20143;-73
2022/01/24 10:05:19;;;;;;;18.15;7.72;;;;;;;6.50;100.00;103149.19;5059480;28;20071;-73
2022/01/24 10:08:03;;;;;;;19.17;7.43;;;;;;;6.49;100.00;103142.06;5067246;28;20056;-73
2022/01/24 10:10:46;;;;;;;5.63;2.63;;;;;;;6.42;100.00;103132.59;5070093;28;20066;-73
2022/01/24 10:16:43;;;;;;;;;;;;;;;;;;;;;
2022/01/24 10:19:09;;;;;;;13.77;5.93;;;;;;;6.53;100.00;103129.31;5066191;28;20152;-73
2022/01/24 10:22:00;;;;;;;17.27;7.18;;;;;;;6.58;100.00;103139.38;5064806;28;20044;-72
2022/01/24 10:24:41;;;;;;;16.08;7.97;;;;;;;6.60;100.00;103128.84;5070159;28;20102;-72
2022/01/24 10:27:08;;;;;;;14.60;6.55;;;;;;;6.53;100.00;103131.22;5067597;28;20169;-72
2022/01/24 10:29:41;;;;;;;17.02;8.18;;;;;;;6.53;100.00;103132.06;5070257;28;20700;-71
2022/01/24 10:32:07;;;;;;;18.67;7.93;;;;;;;6.59;100.00;103139.06;5063992;28;20052;-73
2022/01/24 10:34:36;;;;;;;18.20;7.40;;;;;;;6.59;100.00;103135.50;5069421;28;20044;-72
2022/01/24 10:37:03;;;;;;;10.98;5.07;;;;;;;6.56;100.00;103131.44;5070917;28;20679;-72
2022/01/24 10:44:58;;;;;;;16.17;8.00;;;;;;;6.62;100.00;103126.63;5068798;28;20148;-73
2022/01/24 10:47:29;;;;;;;18.00;8.10;;;;;;;6.72;100.00;103129.13;5063031;28;20409;-71
2022/01/24 10:49:59;;;;;;;9.13;4.15;;;;;;;6.66;100.00;103130.34;5067150;28;20127;-72
2022/01/24 10:52:29;;;;;;;6.18;3.13;;;;;;;6.63;100.00;103130.97;5063610;28;20159;-74
2022/01/24 10:55:26;;;;;;;16.00;6.97;;;;;;;6.67;100.00;103126.47;5059738;28;20155;-75
2022/01/24 10:58:06;;;;;;;15.00;7.18;;;;;;;6.75;100.00;103121.03;5062294;28;20060;-71
2022/01/24 11:00:33;;;;;;;18.33;7.63;;;;;;;6.74;100.00;103121.34;5059516;28;20052;-71
2022/01/24 11:03:02;;;;;;;19.40;8.05;;;;;;;6.71;100.00;103116.47;5061345;28;20053;-72
2022/01/24 11:05:34;;;;;;;15.57;7.35;;;;;;;6.60;100.00;103109.59;5060314;28;20394;-70
2022/01/24 11:08:05;;;;;;;17.20;8.23;;;;;;;6.71;100.00;103116.47;5061890;28;20071;-72
2022/01/24 11:10:46;;;;;;;3.38;1.55;;;;;;;6.63;100.00;103100.72;5059435;28;20051;-75
2022/01/24 11:13:13;;;;;;;16.70;7.68;;;;;;;6.73;100.00;103103.22;5057696;28;20036;-74
2022/01/24 11:15:44;;;;;;;19.75;9.32;;;;;;;6.76;100.00;103100.66;5058053;28;20054;-75
2022/01/24 11:18:14;;;;;;;20.70;8.68;;;;;;;6.78;100.00;103087.38;5059576;28;20163;-75
2022/01/24 11:20:45;;;;;;;18.27;8.55;;;;;;;6.85;100.00;103085.00;5062581;28;20131;-72
2022/01/24 11:23:13;;;;;;;15.75;7.20;;;;;;;6.78;100.00;103083.84;5063279;28;20052;-72
2022/01/24 11:25:43;;;;;;;17.35;7.32;;;;;;;6.73;100.00;103078.44;5061649;28;20234;-71
2022/01/24 11:28:10;;;;;;;20.42;10.00;;;;;;;6.77;100.00;103079.44;5064493;28;20080;-72
2022/01/24 11:30:44;;;;;;;16.80;8.88;;;;;;;6.77;100.00;103079.44;5065796;28;20063;-73
2022/01/24 11:33:17;;;;;;;17.10;7.20;;;;;;;6.77;100.00;103080.25;5043102;28;20056;-75
2022/01/24 11:35:50;;;;;;;19.42;8.02;;;;;;;6.84;100.00;103083.38;5049272;28;20055;-73
2022/01/24 11:38:37;;;;;;;16.85;7.90;;;;;;;6.89;100.00;103074.97;5050719;28;20048;-74
2022/01/24 11:41:25;;;;;;;17.80;8.32;;;;;;;6.89;100.00;103076.94;5051959;28;20049;-74
2022/01/24 11:43:59;;;;;;;19.33;8.35;;;;;;;6.91;100.00;103060.91;5050687;28;20067;-73
2022/01/24 11:46:48;;;;;;;18.45;8.48;;;;;;;6.91;100.00;103086.50;5064223;28;20127;-72
2022/01/24 11:49:25;;;;;;;20.10;8.63;;;;;;;6.80;100.00;103082.38;5050625;28;20429;-74
2022/01/24 11:52:01;;;;;;;13.20;7.05;;;;;;;6.83;100.00;103081.75;5053122;28;20509;-75
2022/01/24 11:57:17;;;;;;;18.58;8.13;;;;;;;6.86;100.00;103081.13;5048420;28;20065;-74
2022/01/24 11:59:44;;;;;;;15.13;6.72;;;;;;;6.77;100.00;103072.00;5053293;28;20166;-73
2022/01/24 12:02:15;;;;;;;16.13;8.13;;;;;;;6.82;100.00;103071.84;5054916;28;20388;-73
2022/01/24 12:05:12;;;;;;;18.95;8.38;;;;;;;6.85;100.00;103070.44;5052669;28;20048;-71
2022/01/24 12:07:50;;;;;;;19.00;8.38;;;;;;;6.90;100.00;103075.81;5065625;28;20229;-73
2022/01/24 12:10:22;;;;;;;14.90;6.60;;;;;;;6.92;100.00;103073.56;5052565;28;20578;-74
2022/01/24 12:12:56;;;;;;;17.63;7.35;;;;;;;6.90;100.00;103062.03;5050477;28;20056;-75
2022/01/24 12:15:41;;;;;;;18.45;8.43;;;;;;;6.92;100.00;103071.59;5065518;28;20044;-72
2022/01/24 12:18:09;;;;;;;19.73;9.23;;;;;;;6.96;100.00;103069.03;5051038;28;20048;-73
2022/01/24 12:20:36;;;;;;;19.85;8.63;;;;;;;6.95;100.00;103067.41;5050747;28;20299;-73
2022/01/24 12:23:16;;;;;;;17.83;7.40;;;;;;;6.94;100.00;103071.28;5051630;28;21996;-75
2022/01/24 12:26:11;;;;;;;18.15;8.43;;;;;;;7.07;100.00;103065.69;5063751;28;22072;-75
2022/01/24 12:28:41;;;;;;;19.05;8.60;;;;;;;7.07;100.00;103060.19;5048840;28;20120;-72
2022/01/24 12:31:29;;;;;;;16.65;7.25;;;;;;;6.95;100.00;103062.72;5049967;28;20052;-72
2022/01/24 12:33:59;;;;;;;17.27;8.23;;;;;;;6.94;100.00;103057.50;5049699;28;20050;-75
2022/01/24 12:36:47;;;;;;;19.95;8.55;;;;;;;6.95;100.00;103061.91;5046319;28;20062;-76
2022/01/24 12:39:19;;;;;;;20.65;9.73;;;;;;;7.03;100.00;103052.88;5049341;28;20082;-73
2022/01/24 12:41:59;;;;;;;24.40;10.30;;;;;;;7.12;100.00;103051.78;5065793;28;20151;-73
2022/01/24 12:47:15;;;;;;;18.98;8.70;;;;;;;7.08;100.00;103047.22;5068045;28;20541;-72
2022/01/24 12:49:44;;;;;;;21.33;9.15;;;;;;;7.04;100.00;103055.31;5066852;28;20063;-74
2022/01/24 12:52:18;;;;;;;24.30;3.22;;;;;;;6.98;100.00;103053.00;5064094;28;20048;-72
2022/01/24 12:54:57;;;;;;;22.05;9.18;;;;;;;6.92;100.00;103051.53;5070951;28;20090;-73
2022/01/24 12:57:37;;;;;;;18.00;8.52;;;;;;;6.89;100.00;103052.94;5065873;28;20056;-72
2022/01/24 13:00:09;;;;;;;18.70;8.73;;;;;;;6.94;100.00;103055.59;5064496;28;20044;-72
2022/01/24 13:02:40;;;;;;;18.20;9.25;;;;;;;6.96;100.00;103044.25;5060822;28;20830;-71
2022/01/24 13:05:12;;;;;;;18.05;8.88;;;;;;;7.00;100.00;103039.75;5062501;28;20052;-74
2022/01/24 13:07:41;;;;;;;3.22;1.55;;;;;;;6.83;100.00;103043.22;5065517;28;20055;-73
2022/01/24 13:10:11;;;;;;;12.88;5.30;;;;;;;6.81;100.00;103053.72;5063557;28;20055;-72
2022/01/24 13:12:39;;;;;;;23.25;11.80;;;;;;;6.92;100.00;103046.03;5065296;28;21812;-73
2022/01/24 13:15:19;;;;;;;22.60;10.95;;;;;;;6.99;100.00;103041.66;5065053;28;21211;-72
2022/01/24 13:23:24;;;;;;;21.27;9.48;;;;;;;7.00;100.00;103054.31;5057747;28;20476;-73
2022/01/24 13:25:51;;;;;;;20.05;9.48;;;;;;;7.03;100.00;103050.13;5079748;28;20581;-73